createdAt,value
2023-10-22T00:01:25.822Z,12.29
2023-10-22T00:03:53.881Z,12.33
2023-10-22T00:06:21.736Z,12.32
2023-10-22T00:08:49.505Z,12.38
2023-10-22T00:11:18.735Z,12.37
2023-10-22T00:13:46.500Z,12.34
2023-10-22T00:16:14.451Z,12.34
2023-10-22T00:18:42.329Z,12.39
2023-10-22T00:21:10.283Z,12.40
2023-10-22T00:23:38.460Z,12.43
2023-10-22T00:26:07.897Z,12.43
2023-10-22T00:28:37.383Z,12.43
2023-10-22T00:31:05.262Z,12.46
2023-10-22T00:33:33.197Z,12.44
2023-10-22T00:36:01.135Z,12.46
2023-10-22T00:38:30.881Z,12.42
2023-10-22T00:40:58.674Z,12.41
2023-10-22T00:43:26.546Z,12.40
2023-10-22T00:45:57.127Z,12.40
2023-10-22T00:48:27.072Z,12.43
2023-10-22T00:50:55.697Z,12.42
2023-10-22T00:53:24.794Z,12.46
2023-10-22T00:55:52.778Z,12.48
2023-10-22T00:58:21.843Z,12.51
2023-10-22T01:00:49.968Z,12.45
2023-10-22T01:03:20.313Z,12.43
2023-10-22T01:05:48.250Z,12.45
2023-10-22T01:08:16.498Z,12.42
2023-10-22T01:10:44.245Z,12.42
2023-10-22T01:13:12.012Z,12.49
2023-10-22T01:15:39.896Z,12.51
2023-10-22T01:18:08.134Z,12.48
2023-10-22T01:20:37.397Z,12.45
2023-10-22T01:23:05.241Z,12.44
2023-10-22T01:25:34.343Z,12.44
2023-10-22T01:28:02.138Z,12.44
2023-10-22T01:30:30.367Z,12.45
2023-10-22T01:32:58.232Z,12.44
2023-10-22T01:35:26.080Z,12.41
2023-10-22T01:37:53.888Z,12.35
2023-10-22T01:40:21.846Z,12.35
2023-10-22T01:42:51.595Z,12.25
2023-10-22T01:45:19.861Z,12.26
2023-10-22T01:47:48.120Z,12.21
2023-10-22T01:50:16.002Z,12.22
2023-10-22T01:52:43.810Z,12.16
2023-10-22T01:55:13.161Z,12.12
2023-10-22T01:57:41.103Z,12.14
2023-10-22T02:00:12.315Z,12.09
2023-10-22T02:02:43.042Z,12.03
2023-10-22T02:05:10.937Z,12.00
2023-10-22T02:07:39.983Z,11.98
2023-10-22T02:10:09.872Z,11.90
2023-10-22T02:12:38.224Z,11.86
2023-10-22T02:15:07.393Z,11.87
2023-10-22T02:17:36.765Z,11.79
2023-10-22T02:20:09.975Z,11.84
2023-10-22T02:22:38.310Z,11.70
2023-10-22T02:25:07.640Z,11.69
2023-10-22T02:27:36.261Z,11.62
2023-10-22T02:30:04.786Z,11.56
2023-10-22T02:32:33.793Z,11.56
2023-10-22T02:35:04.082Z,11.49
2023-10-22T02:37:31.790Z,11.50
2023-10-22T02:39:59.935Z,11.42
2023-10-22T02:42:28.662Z,11.51
2023-10-22T02:44:56.449Z,11.48
2023-10-22T02:47:24.234Z,11.46
2023-10-22T02:49:51.939Z,11.40
2023-10-22T02:52:21.050Z,11.47
2023-10-22T02:54:50.089Z,11.36
2023-10-22T02:57:17.936Z,11.33
2023-10-22T02:59:45.749Z,11.31
2023-10-22T03:02:13.653Z,11.33
2023-10-22T03:04:41.783Z,11.36
2023-10-22T03:07:09.765Z,11.38
2023-10-22T03:09:38.846Z,11.39
2023-10-22T03:12:07.267Z,11.34
2023-10-22T03:14:35.114Z,11.33
2023-10-22T03:17:03.520Z,11.31
2023-10-22T03:19:31.482Z,11.28
2023-10-22T03:21:59.357Z,11.27
2023-10-22T03:24:28.199Z,11.25
2023-10-22T03:26:57.406Z,11.34
2023-10-22T03:29:26.273Z,11.28
2023-10-22T03:31:54.351Z,11.31
2023-10-22T03:34:22.220Z,11.38
2023-10-22T03:36:50.137Z,11.35
2023-10-22T03:39:18.690Z,11.35
2023-10-22T03:41:46.672Z,11.36
2023-10-22T03:44:15.763Z,11.29
2023-10-22T03:46:47.782Z,11.35
2023-10-22T03:49:15.571Z,11.35
2023-10-22T03:51:43.353Z,11.37
2023-10-22T03:54:11.305Z,11.44
2023-10-22T03:56:39.217Z,11.37
2023-10-22T03:59:06.962Z,11.41
2023-10-22T04:01:36.183Z,11.41
2023-10-22T04:04:04.029Z,11.46
2023-10-22T04:06:32.367Z,11.44
2023-10-22T04:09:00.155Z,11.46
2023-10-22T04:11:27.940Z,11.44
2023-10-22T04:13:55.776Z,11.44
2023-10-22T04:16:23.593Z,11.42
2023-10-22T04:18:52.664Z,11.46
2023-10-22T04:21:20.390Z,11.49
2023-10-22T04:23:48.393Z,11.44
2023-10-22T04:26:17.262Z,11.43
2023-10-22T04:28:46.318Z,11.46
2023-10-22T04:31:14.447Z,11.41
2023-10-22T04:33:42.417Z,11.37
2023-10-22T04:36:18.153Z,11.44
2023-10-22T04:38:46.085Z,11.41
2023-10-22T04:41:14.282Z,11.45
2023-10-22T04:43:42.344Z,11.39
2023-10-22T04:46:10.554Z,11.40
2023-10-22T04:48:38.460Z,11.44
2023-10-22T04:51:07.361Z,11.51
2023-10-22T04:53:37.091Z,11.45
2023-10-22T04:56:05.208Z,11.42
2023-10-22T04:58:34.312Z,11.47
2023-10-22T05:01:02.213Z,11.45
2023-10-22T05:03:30.094Z,11.47
2023-10-22T05:05:58.102Z,11.49
2023-10-22T05:08:27.698Z,11.47
2023-10-22T05:10:56.904Z,11.57
2023-10-22T05:13:25.789Z,11.55
2023-10-22T05:15:55.960Z,11.56
2023-10-22T05:18:24.030Z,11.57
2023-10-22T05:20:51.987Z,11.54
2023-10-22T05:23:20.122Z,11.56
2023-10-22T05:25:47.950Z,11.61
2023-10-22T05:28:17.146Z,11.57
2023-10-22T05:30:44.968Z,11.67
2023-10-22T05:33:12.885Z,11.62
2023-10-22T05:35:40.744Z,11.62
2023-10-22T05:38:09.158Z,11.63
2023-10-22T05:40:40.060Z,11.63
2023-10-22T05:43:07.917Z,11.72
2023-10-22T05:45:37.390Z,11.72
2023-10-22T05:48:05.916Z,11.69
2023-10-22T05:50:34.343Z,11.68
2023-10-22T05:53:02.272Z,11.78
2023-10-22T05:55:30.129Z,11.78
2023-10-22T05:57:57.916Z,11.79
2023-10-22T06:00:25.867Z,11.76
2023-10-22T06:02:55.375Z,11.78
2023-10-22T06:05:24.317Z,11.81
2023-10-22T06:07:53.814Z,11.82
2023-10-22T06:10:21.890Z,11.85
2023-10-22T06:12:50.769Z,11.90
2023-10-22T06:15:18.725Z,11.85
2023-10-22T06:17:46.710Z,11.90
2023-10-22T06:20:16.113Z,11.89
2023-10-22T06:22:47.335Z,11.84
2023-10-22T06:25:15.678Z,11.78
2023-10-22T06:27:43.471Z,11.77
2023-10-22T06:30:12.522Z,11.72
2023-10-22T06:32:40.442Z,11.72
2023-10-22T06:35:08.726Z,11.78
2023-10-22T06:37:37.976Z,11.70
2023-10-22T06:40:06.682Z,11.66
2023-10-22T06:42:34.928Z,11.69
2023-10-22T06:45:05.205Z,11.70
2023-10-22T06:47:37.181Z,11.75
2023-10-22T06:50:05.547Z,11.73
2023-10-22T06:52:33.774Z,11.71
2023-10-22T06:55:03.590Z,11.70
2023-10-22T06:57:31.484Z,11.68
2023-10-22T07:00:00.530Z,11.66
2023-10-22T07:02:28.571Z,11.66
2023-10-22T07:04:57.466Z,11.68
2023-10-22T07:07:26.369Z,11.62
2023-10-22T07:09:54.158Z,11.64
2023-10-22T07:12:23.357Z,11.61
2023-10-22T07:14:51.285Z,11.66
2023-10-22T07:17:19.003Z,11.61
2023-10-22T07:19:46.841Z,11.67
2023-10-22T07:22:14.724Z,11.67
2023-10-22T07:24:42.484Z,11.68
2023-10-22T07:27:10.303Z,11.70
2023-10-22T07:29:39.339Z,11.76
2023-10-22T07:32:07.732Z,11.80
2023-10-22T07:34:35.477Z,11.86
2023-10-22T07:37:03.337Z,11.82
2023-10-22T07:39:31.335Z,11.77
2023-10-22T07:41:59.150Z,11.78
2023-10-22T07:44:26.938Z,11.85
2023-10-22T07:46:56.322Z,11.77
2023-10-22T07:49:24.157Z,11.78
2023-10-22T07:51:52.644Z,11.86
2023-10-22T07:54:20.445Z,11.79
2023-10-22T07:56:48.333Z,11.80
2023-10-22T07:59:16.153Z,11.86
2023-10-22T08:01:43.949Z,11.82
2023-10-22T08:04:13.172Z,11.93
2023-10-22T08:06:41.022Z,11.92
2023-10-22T08:09:08.973Z,11.85
2023-10-22T08:11:36.861Z,11.85
2023-10-22T08:14:04.653Z,11.85
2023-10-22T08:16:32.577Z,11.87
2023-10-22T08:19:00.423Z,11.95
2023-10-22T08:21:29.630Z,11.86
2023-10-22T08:23:57.628Z,11.85
2023-10-22T08:26:26.890Z,11.87
2023-10-22T08:28:54.898Z,11.94
2023-10-22T08:31:22.766Z,11.99
2023-10-22T08:33:50.749Z,11.99
2023-10-22T08:36:20.415Z,12.06
2023-10-22T08:38:49.871Z,12.18
2023-10-22T08:41:22.284Z,12.14
2023-10-22T08:43:51.096Z,12.18
2023-10-22T08:46:19.086Z,12.12
2023-10-22T08:48:47.519Z,12.24
2023-10-22T08:51:15.595Z,12.30
2023-10-22T08:53:43.478Z,12.33
2023-10-22T08:56:12.672Z,12.28
2023-10-22T08:58:40.522Z,12.31
2023-10-22T09:01:08.430Z,12.34
2023-10-22T09:03:36.578Z,12.38
2023-10-22T09:06:07.171Z,12.49
2023-10-22T09:08:46.940Z,12.41
2023-10-22T09:11:17.647Z,12.31
2023-10-22T09:13:45.962Z,12.37
2023-10-22T09:16:13.999Z,12.39
2023-10-22T09:18:45.817Z,12.33
2023-10-22T09:21:13.779Z,12.35
2023-10-22T09:23:43.827Z,12.39
2023-10-22T09:26:12.499Z,12.38
2023-10-22T09:28:41.747Z,12.43
2023-10-22T09:31:09.578Z,12.43
2023-10-22T09:33:38.586Z,12.49
2023-10-22T09:36:08.933Z,12.55
2023-10-22T09:38:48.048Z,12.60
2023-10-22T09:41:28.844Z,12.76
2023-10-22T09:44:00.264Z,12.84
2023-10-22T09:46:31.448Z,12.91
2023-10-22T09:49:00.793Z,13.31
2023-10-22T09:51:32.258Z,13.48
2023-10-22T09:54:06.697Z,13.61
2023-10-22T09:56:39.416Z,13.62
2023-10-22T09:59:11.580Z,13.71
2023-10-22T10:01:41.756Z,13.81
2023-10-22T10:04:10.229Z,13.72
2023-10-22T10:06:38.569Z,13.72
2023-10-22T10:09:07.482Z,14.16
2023-10-22T10:11:36.803Z,13.86
2023-10-22T10:14:14.426Z,13.88
2023-10-22T10:16:46.810Z,13.91
2023-10-22T10:19:22.364Z,13.90
2023-10-22T10:21:51.182Z,13.94
2023-10-22T10:24:24.058Z,13.94
2023-10-22T10:26:53.767Z,13.83
2023-10-22T10:29:25.586Z,13.99
2023-10-22T10:31:54.693Z,13.92
2023-10-22T10:34:40.988Z,13.69
2023-10-22T10:37:14.086Z,13.74
2023-10-22T10:39:43.616Z,13.73
2023-10-22T10:42:11.913Z,13.65
2023-10-22T10:45:08.892Z,13.47
2023-10-22T10:47:38.272Z,13.49
2023-10-22T10:50:08.033Z,13.37
2023-10-22T10:53:00.672Z,13.21
2023-10-22T10:55:36.498Z,13.32
2023-10-22T10:58:05.012Z,13.32
2023-10-22T11:00:34.558Z,13.39
2023-10-22T11:03:04.181Z,13.38
2023-10-22T11:05:37.308Z,13.30
2023-10-22T11:08:07.105Z,13.21
2023-10-22T11:10:35.169Z,13.10
2023-10-22T11:13:04.970Z,13.12
2023-10-22T11:15:36.262Z,13.30
2023-10-22T11:18:05.497Z,13.29
2023-10-22T11:20:33.861Z,13.32
2023-10-22T11:23:02.377Z,13.37
2023-10-22T11:25:32.200Z,13.36
2023-10-22T11:28:00.414Z,13.40
2023-10-22T11:30:40.225Z,13.47
2023-10-22T11:33:09.441Z,13.53
2023-10-22T11:35:38.989Z,13.65
2023-10-22T11:38:07.613Z,13.87
2023-10-22T11:40:38.496Z,13.88
2023-10-22T11:43:16.345Z,13.85
2023-10-22T11:45:54.966Z,13.97
2023-10-22T11:48:25.377Z,14.02
2023-10-22T11:50:58.394Z,13.99
2023-10-22T11:53:29.660Z,13.83
2023-10-22T11:55:57.448Z,13.65
2023-10-22T11:58:27.184Z,13.54
2023-10-22T12:00:57.246Z,13.43
2023-10-22T12:03:25.691Z,13.48
2023-10-22T12:05:53.690Z,13.47
2023-10-22T12:08:21.564Z,13.41
2023-10-22T12:10:49.334Z,13.44
2023-10-22T12:13:17.124Z,13.41
2023-10-22T12:15:45.378Z,13.39
2023-10-22T12:18:14.874Z,13.55
2023-10-22T12:20:42.979Z,13.53
2023-10-22T12:23:12.532Z,13.40
2023-10-22T12:25:40.870Z,13.53
2023-10-22T12:28:09.003Z,13.64
2023-10-22T12:30:37.179Z,13.68
2023-10-22T12:33:05.589Z,13.77
2023-10-22T12:35:35.121Z,13.73
2023-10-22T12:38:03.466Z,13.95
2023-10-22T12:40:31.648Z,14.06
2023-10-22T12:43:02.137Z,14.04
2023-10-22T12:45:31.553Z,14.01
2023-10-22T12:47:59.640Z,13.85
2023-10-22T12:50:27.611Z,13.81
2023-10-22T12:52:56.745Z,13.84
2023-10-22T12:55:26.905Z,13.95
2023-10-22T12:57:54.968Z,14.05
2023-10-22T13:00:23.024Z,14.16
2023-10-22T13:02:50.976Z,14.24
2023-10-22T13:05:18.876Z,14.32
2023-10-22T13:07:46.648Z,14.23
2023-10-22T13:10:16.228Z,14.25
2023-10-22T13:12:51.109Z,14.27
2023-10-22T13:15:22.245Z,14.37
2023-10-22T13:17:50.065Z,14.50
2023-10-22T13:20:17.815Z,14.53
2023-10-22T13:22:45.583Z,14.56
2023-10-22T13:25:13.760Z,14.48
2023-10-22T13:27:43.587Z,14.59
2023-10-22T13:30:13.413Z,14.35
2023-10-22T13:32:41.319Z,14.31
2023-10-22T13:35:09.705Z,14.36
2023-10-22T13:37:38.197Z,14.28
2023-10-22T13:40:06.864Z,14.27
2023-10-22T13:42:34.662Z,14.36
2023-10-22T13:45:03.955Z,14.48
2023-10-22T13:47:31.745Z,14.44
2023-10-22T13:50:00.179Z,14.46
2023-10-22T13:52:27.939Z,14.47
2023-10-22T13:54:55.761Z,14.42
2023-10-22T13:57:24.391Z,14.41
2023-10-22T13:59:52.442Z,14.43
2023-10-22T14:02:21.590Z,14.36
2023-10-22T14:04:49.847Z,14.24
2023-10-22T14:07:17.665Z,14.33
2023-10-22T14:09:45.592Z,14.22
2023-10-22T14:12:13.454Z,14.10
2023-10-22T14:14:41.414Z,14.14
2023-10-22T14:17:09.342Z,14.14
2023-10-22T14:19:38.610Z,14.18
2023-10-22T14:22:07.853Z,14.18
2023-10-22T14:24:36.490Z,14.14
2023-10-22T14:27:13.741Z,14.02
2023-10-22T14:29:42.699Z,14.02
2023-10-22T14:32:10.857Z,13.97
2023-10-22T14:34:40.246Z,14.02
2023-10-22T14:37:09.048Z,14.05
2023-10-22T14:39:37.019Z,14.15
2023-10-22T14:42:05.535Z,14.15
2023-10-22T14:44:33.350Z,14.15
2023-10-22T14:47:01.155Z,14.17
2023-10-22T14:49:28.885Z,14.14
2023-10-22T14:52:00.083Z,14.20
2023-10-22T14:54:30.482Z,14.20
2023-10-22T14:56:58.259Z,14.17
2023-10-22T14:59:26.272Z,14.16
2023-10-22T15:01:54.073Z,14.05
2023-10-22T15:04:22.195Z,14.06
2023-10-22T15:06:49.978Z,14.04
2023-10-22T15:09:19.178Z,14.01
2023-10-22T15:11:47.289Z,14.01
2023-10-22T15:14:15.529Z,13.84
2023-10-22T15:16:44.605Z,13.78
2023-10-22T15:19:12.902Z,13.71
2023-10-22T15:21:41.239Z,13.76
2023-10-22T15:24:09.816Z,13.68
2023-10-22T15:26:39.242Z,13.59
2023-10-22T15:29:07.091Z,13.55
2023-10-22T15:31:34.974Z,13.46
2023-10-22T15:34:03.017Z,13.52
2023-10-22T15:36:30.967Z,13.45
2023-10-22T15:38:58.956Z,13.30
2023-10-22T15:41:27.012Z,13.27
2023-10-22T15:43:58.550Z,13.18
2023-10-22T15:46:28.502Z,13.13
2023-10-22T15:48:56.401Z,13.08
2023-10-22T15:51:25.976Z,13.00
2023-10-22T15:53:54.012Z,13.00
2023-10-22T15:56:21.785Z,12.95
2023-10-22T15:58:53.944Z,12.83
2023-10-22T16:01:23.640Z,12.81
2023-10-22T16:03:53.199Z,12.74
2023-10-22T16:06:21.203Z,12.73
2023-10-22T16:08:49.293Z,12.64
2023-10-22T16:11:17.140Z,12.59
2023-10-22T16:13:45.002Z,12.59
2023-10-22T16:16:12.896Z,12.58
2023-10-22T16:18:42.334Z,12.55
2023-10-22T16:21:10.183Z,12.58
2023-10-22T16:23:40.840Z,12.45
2023-10-22T16:26:09.352Z,12.45
2023-10-22T16:28:37.423Z,12.38
2023-10-22T16:31:05.459Z,12.37
2023-10-22T16:33:33.464Z,12.36
2023-10-22T16:36:08.244Z,12.22
2023-10-22T16:38:36.019Z,12.19
2023-10-22T16:41:07.833Z,12.19
2023-10-22T16:43:35.944Z,12.15
2023-10-22T16:46:04.283Z,12.06
2023-10-22T16:48:32.413Z,12.09
2023-10-22T16:51:03.687Z,12.02
2023-10-22T16:53:33.716Z,12.02
2023-10-22T16:56:02.894Z,11.83
2023-10-22T16:58:30.968Z,11.91
2023-10-22T17:01:03.848Z,11.92
2023-10-22T17:03:31.798Z,11.80
2023-10-22T17:05:59.832Z,11.89
2023-10-22T17:08:27.735Z,11.91
2023-10-22T17:10:56.958Z,11.95
2023-10-22T17:13:24.902Z,11.90
2023-10-22T17:15:52.853Z,11.95
2023-10-22T17:18:20.834Z,11.90
2023-10-22T17:20:48.881Z,11.78
2023-10-22T17:23:17.043Z,11.68
2023-10-22T17:25:49.791Z,11.74
2023-10-22T17:28:19.251Z,11.73
2023-10-22T17:30:48.264Z,11.58
2023-10-22T17:33:16.147Z,11.52
2023-10-22T17:35:44.476Z,11.43
2023-10-22T17:38:12.374Z,11.43
2023-10-22T17:40:41.146Z,11.37
2023-10-22T17:43:10.633Z,11.42
2023-10-22T17:45:41.846Z,11.43
2023-10-22T17:48:11.471Z,11.43
2023-10-22T17:50:39.632Z,11.39
2023-10-22T17:53:23.536Z,11.41
2023-10-22T17:58:34.925Z,11.55
2023-10-22T18:01:05.617Z,11.40
2023-10-22T18:03:34.863Z,11.48
2023-10-22T18:06:03.742Z,11.36
2023-10-22T18:08:33.361Z,11.42
2023-10-22T18:11:02.450Z,11.30
2023-10-22T18:13:31.497Z,11.30
2023-10-22T18:16:00.283Z,11.25
2023-10-22T18:18:29.645Z,11.34
2023-10-22T18:21:03.197Z,11.27
2023-10-22T18:23:31.069Z,11.22
2023-10-22T18:26:02.901Z,11.13
2023-10-22T18:28:30.826Z,10.94
2023-10-22T18:30:58.783Z,10.95
2023-10-22T18:33:26.731Z,10.82
2023-10-22T18:36:00.583Z,10.90
2023-10-22T18:38:30.502Z,10.78
2023-10-22T18:41:07.519Z,10.80
2023-10-22T18:43:35.242Z,10.71
2023-10-22T18:46:03.798Z,10.70
2023-10-22T18:48:32.014Z,10.75
2023-10-22T18:51:04.629Z,10.65
2023-10-22T18:53:33.255Z,10.64
2023-10-22T18:56:02.581Z,10.63
2023-10-22T18:58:30.380Z,10.56
2023-10-22T19:00:58.320Z,10.55
2023-10-22T19:03:26.203Z,10.54
2023-10-22T19:05:54.160Z,10.53
2023-10-22T19:08:23.413Z,10.56
2023-10-22T19:10:51.168Z,10.64
2023-10-22T19:13:18.952Z,10.59
2023-10-22T19:15:46.877Z,10.61
2023-10-22T19:18:15.239Z,10.63
2023-10-22T19:20:43.119Z,10.62
2023-10-22T19:23:15.151Z,10.71
2023-10-22T19:25:44.378Z,10.56
2023-10-22T19:28:12.134Z,10.69
2023-10-22T19:30:39.942Z,10.70
2023-10-22T19:33:07.941Z,10.59
2023-10-22T19:35:35.815Z,10.48
2023-10-22T19:38:04.028Z,10.53
2023-10-22T19:40:31.846Z,10.47
2023-10-22T19:43:01.008Z,10.41
2023-10-22T19:45:29.317Z,10.31
2023-10-22T19:47:57.141Z,10.29
2023-10-22T19:50:25.058Z,10.42
2023-10-22T19:52:54.720Z,10.35
2023-10-22T19:55:22.578Z,10.39
2023-10-22T19:57:50.445Z,10.46
2023-10-22T20:00:20.173Z,10.29
2023-10-22T20:02:48.283Z,10.41
2023-10-22T20:05:16.303Z,10.30
2023-10-22T20:07:44.150Z,10.28
2023-10-22T20:10:12.361Z,10.25
2023-10-22T20:12:40.143Z,10.23
2023-10-22T20:15:09.180Z,10.33
2023-10-22T20:17:38.369Z,10.21
2023-10-22T20:20:07.359Z,10.10
2023-10-22T20:22:35.117Z,10.23
2023-10-22T20:25:02.884Z,10.39
2023-10-22T20:27:31.302Z,10.40
2023-10-22T20:29:59.157Z,10.39
2023-10-22T20:32:26.927Z,10.24
2023-10-22T20:34:56.465Z,10.16
2023-10-22T20:37:24.634Z,10.19
2023-10-22T20:39:52.701Z,10.16
2023-10-22T20:42:21.004Z,10.05
2023-10-22T20:44:51.321Z,10.04
2023-10-22T20:47:21.925Z,9.97
2023-10-22T20:49:55.035Z,9.96
2023-10-22T20:52:25.207Z,9.91
2023-10-22T20:54:54.046Z,9.93
2023-10-22T20:57:22.264Z,9.96
2023-10-22T20:59:50.081Z,9.97
2023-10-22T21:02:17.856Z,9.90
2023-10-22T21:04:45.766Z,9.83
2023-10-22T21:07:13.965Z,9.79
2023-10-22T21:09:43.218Z,9.82
2023-10-22T21:12:11.079Z,9.96
2023-10-22T21:14:39.058Z,9.91
2023-10-22T21:17:07.009Z,10.03
2023-10-22T21:19:34.832Z,10.00
2023-10-22T21:22:02.712Z,9.93
2023-10-22T21:24:30.563Z,9.84
2023-10-22T21:27:00.322Z,9.79
2023-10-22T21:29:28.305Z,9.88
2023-10-22T21:31:56.482Z,9.89
2023-10-22T21:34:24.240Z,9.88
2023-10-22T21:36:52.306Z,9.88
2023-10-22T21:39:22.168Z,9.75
2023-10-22T21:41:50.404Z,9.63
2023-10-22T21:44:19.777Z,9.59
2023-10-22T21:46:47.621Z,9.62
2023-10-22T21:49:15.584Z,9.65
2023-10-22T21:51:43.644Z,9.57
2023-10-22T21:54:11.606Z,9.48
2023-10-22T21:56:39.494Z,9.54
2023-10-22T21:59:07.441Z,9.69
2023-10-22T22:01:38.582Z,9.55
2023-10-22T22:04:10.139Z,9.53
2023-10-22T22:06:38.152Z,9.55
2023-10-22T22:09:05.930Z,9.51
2023-10-22T22:11:33.706Z,9.45
2023-10-22T22:14:01.549Z,9.46
2023-10-22T22:16:29.478Z,9.49
2023-10-22T22:18:59.018Z,9.59
2023-10-22T22:21:26.927Z,9.62
2023-10-22T22:23:55.180Z,9.45
2023-10-22T22:26:22.945Z,9.46
2023-10-22T22:28:50.899Z,9.40
2023-10-22T22:31:18.892Z,9.38
2023-10-22T22:33:46.858Z,9.40
2023-10-22T22:36:16.127Z,9.39
2023-10-22T22:38:44.250Z,9.31
2023-10-22T22:41:12.124Z,9.31
2023-10-22T22:43:39.846Z,9.17
2023-10-22T22:46:07.837Z,9.26
2023-10-22T22:48:36.090Z,9.20
2023-10-22T22:51:03.925Z,9.39
2023-10-22T22:53:33.526Z,9.26
2023-10-22T22:56:01.537Z,9.26
2023-10-22T22:58:29.298Z,9.23
2023-10-22T23:00:57.197Z,9.17
2023-10-22T23:03:25.064Z,9.21
2023-10-22T23:05:52.813Z,9.11
2023-10-22T23:08:20.715Z,9.11
2023-10-22T23:10:50.187Z,9.09
2023-10-22T23:13:19.237Z,9.05
2023-10-22T23:15:47.214Z,9.10
2023-10-22T23:18:15.274Z,9.08
2023-10-22T23:20:43.294Z,9.08
2023-10-22T23:23:11.165Z,9.00
2023-10-22T23:25:39.080Z,8.95
2023-10-22T23:28:08.172Z,8.88
2023-10-22T23:30:36.023Z,8.93
2023-10-22T23:33:04.051Z,9.01
2023-10-22T23:35:32.160Z,8.96
2023-10-22T23:38:00.029Z,8.91
2023-10-22T23:40:28.110Z,8.97
2023-10-22T23:42:56.500Z,8.99
2023-10-22T23:45:25.795Z,8.87
2023-10-22T23:47:53.747Z,8.94
2023-10-22T23:50:21.686Z,8.94
2023-10-22T23:52:49.611Z,8.95
2023-10-22T23:55:17.758Z,8.90
2023-10-22T23:57:45.525Z,8.91
